Time;durP1;ratioP1;P1;durP2;ratioP2;P2;SDS_P1;SDS_P2;PMS_P1;PMS_P2;Temp;Humidity;BMP_temperature;BMP_pressure;BME280_temperature;BME280_humidity;BME280_pressure;Samples;Min_cycle;Max_cycle;Signal;HPM_P1;HPM_P2
2023/08/05 00:00:12;;;;;;;9.27;8.37;;;;;;;28.62;51.04;94359.50;5095327;28;20476;-73
2023/08/05 00:02:39;;;;;;;9.10;8.30;;;;;;;28.67;51.19;94369.53;5059502;28;20491;-74
2023/08/05 00:05:07;;;;;;;9.70;8.80;;;;;;;28.67;52.72;94353.31;5095707;28;20432;-74
2023/08/05 00:07:34;;;;;;;10.00;9.10;;;;;;;28.67;51.07;94337.94;5060384;28;20530;-75
2023/08/05 00:10:02;;;;;;;9.27;8.37;;;;;;;28.69;51.83;94337.66;5095409;28;20440;-73
2023/08/05 00:12:29;;;;;;;9.83;8.87;;;;;;;28.63;51.49;94352.19;5059711;28;20458;-74
2023/08/05 00:14:56;;;;;;;11.13;8.90;;;;;;;28.48;51.51;94347.44;5059376;28;20455;-74
2023/08/05 00:17:22;;;;;;;10.17;9.00;;;;;;;28.48;51.74;94347.44;5095096;28;20463;-74
2023/08/05 00:19:50;;;;;;;10.00;9.10;;;;;;;28.55;52.55;94348.06;5059879;28;20444;-73
2023/08/05 00:22:17;;;;;;;8.97;8.07;;;;;;;28.57;51.67;94339.69;5058978;28;20918;-74
2023/08/05 00:24:43;;;;;;;9.03;8.13;;;;;;;28.62;51.75;94328.94;5095202;28;20444;-74
2023/08/05 00:27:12;;;;;;;12.23;8.87;;;;;;;28.63;52.64;94319.81;5095050;28;20483;-74
2023/08/05 00:29:39;;;;;;;8.87;8.07;;;;;;;28.62;51.98;94323.53;5094971;28;20469;-74
2023/08/05 00:32:06;;;;;;;10.17;9.27;;;;;;;28.64;51.85;94318.72;5094722;28;20942;-74
2023/08/05 00:34:34;;;;;;;9.10;8.17;;;;;;;28.63;51.57;94325.19;5094815;28;20814;-74
2023/08/05 00:37:00;;;;;;;10.03;9.00;;;;;;;28.52;52.28;94328.84;5094828;28;20443;-74
2023/08/05 00:39:27;;;;;;;14.83;8.87;;;;;;;28.49;52.00;94326.66;5094629;28;20747;-74
2023/08/05 00:41:54;;;;;;;9.30;8.40;;;;;;;28.52;52.49;94318.88;5094821;28;20538;-74
2023/08/05 00:44:23;;;;;;;8.97;8.20;;;;;;;28.41;53.57;94317.16;5094567;28;20483;-74
2023/08/05 00:46:50;;;;;;;8.73;8.03;;;;;;;28.35;52.71;94318.16;5009607;28;20436;-74
2023/08/05 00:49:17;;;;;;;9.50;8.50;;;;;;;28.31;52.09;94317.03;5094475;28;20447;-74
2023/08/05 00:51:44;;;;;;;9.90;9.00;;;;;;;28.25;52.39;94309.94;5094460;28;20926;-74
2023/08/05 00:54:12;;;;;;;9.00;8.10;;;;;;;28.17;53.16;94305.78;5058873;28;20436;-74
2023/08/05 00:56:40;;;;;;;9.27;8.33;;;;;;;28.18;53.38;94306.59;5094405;28;20464;-74
2023/08/05 00:59:07;;;;;;;9.40;8.47;;;;;;;28.16;53.04;94304.16;5094690;28;20440;-74
2023/08/05 01:01:35;;;;;;;10.93;8.63;;;;;;;28.22;52.76;94303.16;5094396;28;20505;-73
2023/08/05 01:04:02;;;;;;;9.30;8.50;;;;;;;28.12;53.53;94302.22;5094326;28;20491;-74
2023/08/05 01:06:29;;;;;;;10.60;8.10;;;;;;;28.07;53.31;94298.41;5094116;28;20462;-74
2023/08/05 01:08:58;;;;;;;9.07;8.17;;;;;;;28.07;53.50;94303.00;5094378;28;20436;-73
2023/08/05 01:11:25;;;;;;;10.07;9.07;;;;;;;27.98;54.39;94294.50;5058143;28;20493;-74
2023/08/05 01:13:52;;;;;;;8.97;8.17;;;;;;;28.07;54.37;94303.81;5094184;28;20915;-74
2023/08/05 01:16:19;;;;;;;8.73;7.93;;;;;;;28.12;52.87;94294.94;5058449;28;20439;-74
2023/08/05 01:18:48;;;;;;;10.20;9.20;;;;;;;28.09;53.07;94298.16;5058092;28;20439;-74
2023/08/05 01:21:21;;;;;;;9.83;8.90;;;;;;;28.11;53.02;94292.50;5058192;28;20451;-74
2023/08/05 01:23:56;;;;;;;9.70;8.37;;;;;;;27.99;53.26;94289.94;5059418;28;20980;-73
2023/08/05 01:26:24;;;;;;;8.03;7.30;;;;;;;27.94;53.58;94290.69;5093868;28;20766;-74
2023/08/05 01:28:52;;;;;;;9.60;8.80;;;;;;;27.95;53.38;94283.41;5093856;28;20451;-74
2023/08/05 01:31:20;;;;;;;9.87;8.87;;;;;;;27.86;54.48;94293.03;5093891;28;20447;-74
2023/08/05 01:33:48;;;;;;;9.23;8.40;;;;;;;27.75;54.14;94283.97;5093808;28;20447;-74
2023/08/05 01:36:20;;;;;;;9.60;8.70;;;;;;;27.79;55.08;94284.31;5093786;28;20445;-74
2023/08/05 01:38:47;;;;;;;9.50;8.20;;;;;;;27.76;54.76;94288.34;5093658;28;20484;-74
2023/08/05 01:41:14;;;;;;;10.00;8.40;;;;;;;27.71;54.31;94289.06;5095074;28;20472;-73
2023/08/05 01:43:43;;;;;;;10.07;8.90;;;;;;;27.71;54.73;94280.97;5094568;28;20479;-74
2023/08/05 01:46:10;;;;;;;9.00;8.17;;;;;;;27.74;54.13;94279.66;5093154;28;20818;-74
2023/08/05 01:48:37;;;;;;;11.13;8.63;;;;;;;27.72;55.17;94277.22;5093373;28;20935;-74
2023/08/05 01:51:03;;;;;;;9.77;8.87;;;;;;;27.76;54.71;94274.84;5093893;28;20462;-74
2023/08/05 01:53:30;;;;;;;13.13;8.20;;;;;;;27.60;53.99;94275.69;5093488;28;20451;-74
2023/08/05 01:55:57;;;;;;;9.27;8.37;;;;;;;27.66;55.29;94278.22;5093644;28;20444;-74
2023/08/05 01:58:24;;;;;;;9.63;8.63;;;;;;;27.54;55.62;94277.50;5093276;28;20451;-74
2023/08/05 02:00:52;;;;;;;9.53;8.53;;;;;;;27.59;55.06;94279.44;5093421;28;20832;-74
2023/08/05 02:03:19;;;;;;;9.57;8.77;;;;;;;27.41;54.51;94281.38;5093134;28;20494;-73
2023/08/05 02:05:46;;;;;;;10.60;9.40;;;;;;;27.34;55.14;94277.22;5093366;28;20427;-74
2023/08/05 02:08:13;;;;;;;10.13;8.33;;;;;;;27.37;56.12;94284.81;5093232;28;20445;-74
2023/08/05 02:10:41;;;;;;;8.23;7.53;;;;;;;27.42;56.45;94282.19;5057735;28;21027;-74
2023/08/05 02:13:08;;;;;;;11.53;8.77;;;;;;;27.57;56.97;94284.28;5093408;28;20436;-74
2023/08/05 02:15:34;;;;;;;10.40;9.37;;;;;;;27.38;55.19;94281.88;5092932;28;20444;-74
2023/08/05 02:18:03;;;;;;;9.67;8.73;;;;;;;27.50;56.39;94279.06;5092882;28;20474;-75
2023/08/05 02:20:30;;;;;;;10.87;8.53;;;;;;;27.52;55.58;94276.94;5092899;28;20446;-74
2023/08/05 02:22:57;;;;;;;11.03;8.40;;;;;;;27.43;55.14;94273.84;5093192;28;20472;-74
2023/08/05 02:25:24;;;;;;;8.73;8.03;;;;;;;27.41;55.48;94280.56;5092907;28;20761;-74
2023/08/05 02:27:51;;;;;;;10.90;9.00;;;;;;;27.56;56.00;94274.56;5092933;28;20985;-74
2023/08/05 02:30:18;;;;;;;12.53;8.73;;;;;;;27.69;55.06;94266.94;5092658;28;20440;-74
2023/08/05 02:32:44;;;;;;;8.10;7.40;;;;;;;27.74;54.92;94272.38;5057202;28;20451;-75
2023/08/05 02:35:12;;;;;;;9.10;8.30;;;;;;;27.63;55.22;94283.31;5092701;28;20923;-74
2023/08/05 02:37:39;;;;;;;11.27;8.97;;;;;;;27.55;55.18;94281.84;5092871;28;20445;-74
2023/08/05 02:40:07;;;;;;;10.30;9.30;;;;;;;27.52;56.26;94281.53;5057106;28;20443;-74
2023/08/05 02:42:34;;;;;;;10.03;9.13;;;;;;;27.61;54.19;94280.81;5056780;28;20455;-74
2023/08/05 02:45:01;;;;;;;9.33;8.43;;;;;;;27.54;54.64;94282.91;5092582;28;20483;-74
2023/08/05 02:47:28;;;;;;;9.40;8.40;;;;;;;27.57;55.63;94279.69;5092913;28;20472;-74
2023/08/05 02:49:55;;;;;;;8.67;7.50;;;;;;;27.50;54.69;94273.69;5092497;28;20458;-74
2023/08/05 02:52:23;;;;;;;15.63;8.30;;;;;;;27.33;55.22;94262.94;5092806;28;20440;-74
2023/08/05 02:54:50;;;;;;;9.47;8.57;;;;;;;27.41;55.66;94267.06;5056665;28;20439;-74
2023/08/05 02:57:17;;;;;;;9.43;8.63;;;;;;;27.42;55.26;94258.75;5092236;28;20432;-74
2023/08/05 02:59:44;;;;;;;8.90;8.03;;;;;;;27.42;55.01;94268.72;5092167;28;20471;-73
2023/08/05 03:02:10;;;;;;;10.10;8.50;;;;;;;27.38;56.30;94272.97;5092518;28;20440;-74
2023/08/05 03:04:37;;;;;;;9.57;8.77;;;;;;;27.27;56.13;94268.50;5092562;28;20490;-73
2023/08/05 03:07:04;;;;;;;10.70;9.07;;;;;;;27.45;55.33;94265.50;5092471;28;20440;-73
2023/08/05 03:09:32;;;;;;;10.10;8.80;;;;;;;27.33;55.84;94254.84;5090398;28;20469;-73
2023/08/05 03:11:59;;;;;;;13.43;7.67;;;;;;;27.28;55.71;94259.38;5073154;28;20437;-73
2023/08/05 03:14:26;;;;;;;9.93;9.03;;;;;;;27.33;56.00;94259.44;5066127;28;21005;-73
2023/08/05 03:16:52;;;;;;;9.60;8.70;;;;;;;27.37;56.50;94257.88;5092374;28;20839;-73
2023/08/05 03:19:19;;;;;;;10.20;8.63;;;;;;;27.62;55.04;94263.63;5056691;28;20934;-75
2023/08/05 03:21:46;;;;;;;9.10;8.40;;;;;;;27.64;54.98;94266.88;5092453;28;20443;-73
2023/08/05 03:24:13;;;;;;;9.20;8.30;;;;;;;27.52;55.15;94263.47;5073037;28;20472;-74
2023/08/05 03:26:41;;;;;;;8.80;7.93;;;;;;;27.50;54.89;94262.91;5092688;28;20455;-73
2023/08/05 03:29:08;;;;;;;8.93;8.10;;;;;;;27.39;55.14;94261.94;5092340;28;20451;-73
2023/08/05 03:31:34;;;;;;;11.50;8.20;;;;;;;27.38;55.67;94260.31;5092261;28;20448;-74
2023/08/05 03:34:01;;;;;;;9.20;8.43;;;;;;;27.55;55.28;94271.06;5092286;28;20902;-73
2023/08/05 03:36:28;;;;;;;8.30;7.60;;;;;;;27.56;54.88;94271.88;5092400;28;20452;-73
2023/08/05 03:38:56;;;;;;;11.70;8.83;;;;;;;27.66;54.45;94262.03;5092523;28;20878;-74
2023/08/05 03:41:22;;;;;;;9.80;8.07;;;;;;;27.63;54.45;94262.56;5092102;28;20896;-74
2023/08/05 03:43:50;;;;;;;7.63;7.00;;;;;;;27.54;55.44;94261.34;5092598;28;20496;-74
2023/08/05 03:46:17;;;;;;;20.93;15.33;;;;;;;27.44;54.71;94261.19;5092545;28;20451;-73
2023/08/05 03:48:44;;;;;;;11.47;10.30;;;;;;;27.39;55.19;94266.50;5056454;28;20497;-74
2023/08/05 03:51:11;;;;;;;12.83;10.73;;;;;;;27.31;55.62;94266.94;5092051;28;20444;-74
2023/08/05 03:53:38;;;;;;;12.60;11.40;;;;;;;27.37;55.97;94269.47;5092190;28;20440;-73
2023/08/05 03:56:06;;;;;;;12.87;11.77;;;;;;;27.46;56.59;94267.94;5056698;28;20452;-74
2023/08/05 03:58:33;;;;;;;23.17;20.90;;;;;;;27.76;55.05;94262.19;5092532;28;20497;-74
2023/08/05 04:01:01;;;;;;;12.80;11.80;;;;;;;28.18;52.19;94266.94;5092064;28;20468;-73
2023/08/05 04:03:30;;;;;;;19.80;14.87;;;;;;;28.37;53.77;94262.88;5092353;28;20440;-74
2023/08/05 04:05:57;;;;;;;10.97;10.00;;;;;;;28.35;54.12;94259.59;5092229;28;20463;-73
2023/08/05 04:08:26;;;;;;;11.10;10.00;;;;;;;28.48;52.76;94263.75;5093795;28;20772;-74
2023/08/05 04:10:52;;;;;;;15.23;10.47;;;;;;;28.58;52.82;94254.94;5095995;28;20954;-74
2023/08/05 04:13:23;;;;;;;9.60;8.60;;;;;;;28.93;51.75;94267.97;5095865;28;20930;-74
2023/08/05 04:15:53;;;;;;;9.50;8.70;;;;;;;29.49;51.89;94263.75;5096091;28;21000;-75
2023/08/05 04:18:21;;;;;;;9.70;8.80;;;;;;;29.92;49.00;94259.06;5096339;28;20489;-75
2023/08/05 04:20:48;;;;;;;8.33;7.63;;;;;;;30.37;48.64;94258.41;5095626;28;20440;-75
2023/08/05 04:23:19;;;;;;;9.27;8.37;;;;;;;30.64;46.21;94257.34;5095802;28;20442;-75
2023/08/05 04:25:46;;;;;;;9.43;8.53;;;;;;;30.96;46.40;94262.53;5095634;28;20973;-76
2023/08/05 04:28:13;;;;;;;10.40;8.43;;;;;;;31.29;45.42;94269.28;5095652;28;20482;-75
2023/08/05 04:30:41;;;;;;;8.97;8.13;;;;;;;31.46;44.68;94263.53;5095606;28;20838;-75
2023/08/05 04:33:10;;;;;;;8.50;7.70;;;;;;;31.74;44.72;94260.22;5095364;28;20941;-76
2023/08/05 04:35:38;;;;;;;8.30;7.50;;;;;;;31.80;44.83;94261.81;5095820;28;20471;-74
2023/08/05 04:38:05;;;;;;;8.60;7.90;;;;;;;31.91;43.58;94257.19;5095431;28;20440;-75
2023/08/05 04:40:32;;;;;;;9.23;8.33;;;;;;;32.12;42.73;94264.16;5095152;28;20447;-74
2023/08/05 04:42:59;;;;;;;11.70;9.70;;;;;;;32.35;43.77;94270.81;5095528;28;20436;-77
2023/08/05 04:45:26;;;;;;;11.57;10.60;;;;;;;32.71;44.58;94268.69;5095477;28;20487;-75
2023/08/05 04:47:53;;;;;;;8.40;7.73;;;;;;;32.91;41.04;94271.25;5095245;28;20447;-76
2023/08/05 04:50:21;;;;;;;8.40;7.60;;;;;;;32.88;41.07;94262.88;5095192;28;20459;-75
2023/08/05 04:52:50;;;;;;;13.63;8.17;;;;;;;32.49;41.86;94260.97;5095473;28;20444;-75
2023/08/05 04:55:16;;;;;;;8.73;7.83;;;;;;;32.69;40.08;94253.78;5094819;28;20448;-75
2023/08/05 04:57:43;;;;;;;8.97;8.07;;;;;;;32.74;43.27;94245.56;5095547;28;20464;-75
2023/08/05 05:00:11;;;;;;;13.83;8.63;;;;;;;32.92;42.96;94253.84;5094948;28;20503;-75
2023/08/05 05:02:39;;;;;;;11.50;8.67;;;;;;;32.77;41.96;94255.88;5095678;28;20436;-75
2023/08/05 05:05:06;;;;;;;12.97;9.43;;;;;;;32.78;45.57;94257.50;5094991;28;20583;-76
2023/08/05 05:07:33;;;;;;;15.90;11.67;;;;;;;32.77;42.05;94270.28;5059225;28;20440;-75
2023/08/05 05:10:02;;;;;;;20.73;12.53;;;;;;;33.06;41.01;94267.63;5076182;28;20432;-75
2023/08/05 05:12:28;;;;;;;17.13;12.33;;;;;;;33.17;41.88;94263.69;5094672;28;20450;-75
2023/08/05 05:14:55;;;;;;;16.20;11.37;;;;;;;33.10;41.36;94260.50;5094555;28;20455;-75
2023/08/05 05:17:22;;;;;;;41.67;21.73;;;;;;;33.24;42.32;94253.28;5094604;28;20466;-76
2023/08/05 05:19:49;;;;;;;38.50;18.23;;;;;;;33.42;43.47;94245.53;5094531;28;20432;-76
2023/08/05 05:22:17;;;;;;;29.93;14.30;;;;;;;33.41;42.73;94242.00;5094856;28;20798;-76
2023/08/05 05:24:44;;;;;;;15.80;10.40;;;;;;;33.37;42.04;94234.72;5094373;28;20567;-76
2023/08/05 05:27:14;;;;;;;16.47;8.90;;;;;;;33.60;40.65;94242.09;5094363;28;20436;-76
2023/08/05 05:29:42;;;;;;;9.90;8.90;;;;;;;33.88;38.89;94245.06;5094317;28;20439;-75
2023/08/05 05:32:08;;;;;;;7.87;7.17;;;;;;;33.91;38.11;94250.72;5075151;28;20519;-76
2023/08/05 05:34:35;;;;;;;14.87;9.73;;;;;;;34.27;42.82;94250.25;5094631;28;20440;-75
2023/08/05 05:37:02;;;;;;;17.57;8.93;;;;;;;34.60;40.09;94259.34;5094354;28;20444;-75
2023/08/05 05:39:30;;;;;;;15.53;9.07;;;;;;;34.87;40.22;94251.31;5096080;28;20575;-76
2023/08/05 05:41:56;;;;;;;10.10;7.23;;;;;;;35.13;37.54;94253.63;5095543;28;20436;-76
2023/08/05 05:44:25;;;;;;;8.07;7.27;;;;;;;35.28;36.48;94247.91;5058882;28;20480;-76
2023/08/05 05:46:51;;;;;;;9.53;8.07;;;;;;;35.51;38.94;94246.94;5094328;28;20439;-77
2023/08/05 05:49:19;;;;;;;7.37;6.87;;;;;;;35.51;36.18;94246.13;5094176;28;20440;-76
2023/08/05 05:51:47;;;;;;;7.60;6.90;;;;;;;35.72;39.78;94244.66;5093969;28;20965;-76
2023/08/05 05:54:14;;;;;;;7.87;7.27;;;;;;;35.90;35.75;94242.97;5093445;28;20519;-76
2023/08/05 05:56:41;;;;;;;8.13;7.33;;;;;;;35.87;35.15;94240.84;5074654;28;20444;-76
2023/08/05 05:59:08;;;;;;;9.30;7.23;;;;;;;35.90;36.23;94242.97;5093690;28;20813;-76
2023/08/05 06:01:36;;;;;;;8.77;7.90;;;;;;;35.90;34.77;94230.13;5093761;28;21005;-76
2023/08/05 06:04:07;;;;;;;7.80;7.10;;;;;;;35.92;36.04;94224.34;5093827;28;20458;-76
2023/08/05 06:06:34;;;;;;;7.87;7.10;;;;;;;36.17;37.06;94229.28;5094031;28;20487;-77
2023/08/05 06:09:03;;;;;;;9.30;7.80;;;;;;;36.23;34.08;94224.50;5093511;28;20501;-76
2023/08/05 06:11:31;;;;;;;12.53;7.73;;;;;;;35.94;38.27;94227.59;5093832;28;20500;-77
2023/08/05 06:13:58;;;;;;;8.40;7.80;;;;;;;35.96;38.29;94219.88;5093628;28;20539;-77
2023/08/05 06:16:24;;;;;;;8.97;8.07;;;;;;;36.04;35.23;94221.91;5093503;28;20440;-76
2023/08/05 06:18:52;;;;;;;9.70;7.70;;;;;;;36.16;34.92;94221.38;5093782;28;20440;-76
2023/08/05 06:21:19;;;;;;;8.33;7.50;;;;;;;36.22;35.14;94212.75;5093183;28;20440;-76
2023/08/05 06:23:46;;;;;;;7.33;6.90;;;;;;;36.38;35.96;94207.78;5093223;28;20455;-76
2023/08/05 06:26:13;;;;;;;7.63;7.03;;;;;;;36.39;34.61;94200.38;5093250;28;20494;-76
2023/08/05 06:28:39;;;;;;;8.37;7.50;;;;;;;36.50;33.72;94204.53;5093322;28;20766;-76
2023/08/05 06:31:06;;;;;;;8.50;7.90;;;;;;;36.46;33.60;94200.78;5093090;28;20839;-76
2023/08/05 06:33:33;;;;;;;9.10;7.90;;;;;;;36.54;34.04;94194.56;5093562;28;20444;-76
2023/08/05 06:36:01;;;;;;;6.90;6.30;;;;;;;36.61;34.60;94192.22;5093392;28;20454;-76
2023/08/05 06:38:28;;;;;;;7.87;7.27;;;;;;;36.71;32.44;94188.41;5057625;28;20428;-76
2023/08/05 06:40:55;;;;;;;8.43;7.73;;;;;;;36.47;33.48;94180.53;5093345;28;20444;-76
2023/08/05 06:43:22;;;;;;;9.90;7.13;;;;;;;35.27;33.67;94176.13;5093137;28;20448;-75
2023/08/05 06:45:48;;;;;;;9.00;7.50;;;;;;;35.43;34.43;94179.44;5092787;28;20576;-75
2023/08/05 06:48:15;;;;;;;9.17;8.27;;;;;;;35.32;35.65;94180.72;5092549;28;20440;-75
2023/08/05 06:50:42;;;;;;;9.77;7.97;;;;;;;35.28;34.23;94175.06;5092477;28;20436;-75
2023/08/05 06:53:10;;;;;;;7.80;7.10;;;;;;;35.45;36.46;94171.75;5092382;28;20931;-75
2023/08/05 06:55:37;;;;;;;8.93;7.80;;;;;;;35.67;35.47;94174.56;5092943;28;20440;-76
2023/08/05 06:58:04;;;;;;;8.47;7.87;;;;;;;35.31;33.85;94160.00;5092426;28;20805;-75
2023/08/05 07:00:31;;;;;;;9.90;8.17;;;;;;;34.86;35.22;94157.00;5091920;28;20575;-77
2023/08/05 07:02:58;;;;;;;9.60;8.20;;;;;;;34.10;36.31;94152.72;5091640;28;20459;-74
2023/08/05 07:05:25;;;;;;;9.80;8.07;;;;;;;33.85;37.44;94143.00;5056169;28;20571;-75
2023/08/05 07:07:52;;;;;;;8.27;7.57;;;;;;;33.89;37.36;94137.78;5091598;28;20447;-75
2023/08/05 07:10:20;;;;;;;9.57;8.67;;;;;;;34.23;38.25;94127.47;5091362;28;20451;-75
2023/08/05 07:12:47;;;;;;;9.10;7.77;;;;;;;34.57;37.82;94134.56;5091711;28;20436;-74
2023/08/05 07:15:13;;;;;;;8.70;8.07;;;;;;;34.78;36.53;94130.41;5091430;28;20810;-75
2023/08/05 07:17:41;;;;;;;9.00;8.10;;;;;;;34.69;35.66;94132.97;5091566;28;20436;-74
2023/08/05 07:20:08;;;;;;;10.20;9.33;;;;;;;34.51;36.68;94124.88;5091479;28;20436;-75
2023/08/05 07:22:36;;;;;;;8.43;7.73;;;;;;;33.73;37.54;94124.34;5091728;28;20964;-77
2023/08/05 07:25:03;;;;;;;8.20;7.60;;;;;;;33.90;38.01;94121.16;5091532;28;20936;-76
2023/08/05 07:27:31;;;;;;;8.70;8.00;;;;;;;33.48;38.41;94124.66;5091899;28;20436;-76
2023/08/05 07:29:58;;;;;;;8.77;7.97;;;;;;;33.65;38.95;94125.00;5091674;28;20440;-76
2023/08/05 07:32:25;;;;;;;9.00;8.10;;;;;;;33.17;38.23;94125.00;5091582;28;20786;-76
2023/08/05 07:34:55;;;;;;;9.10;8.30;;;;;;;33.39;38.08;94110.09;5091646;28;20451;-77
2023/08/05 07:37:24;;;;;;;7.67;7.10;;;;;;;33.79;37.45;94114.19;5091829;28;20465;-77
2023/08/05 07:39:51;;;;;;;9.00;8.20;;;;;;;33.81;37.06;94118.22;5091522;28;20478;-77
2023/08/05 07:42:22;;;;;;;9.70;8.77;;;;;;;33.86;37.80;94110.06;5091653;28;20447;-77
2023/08/05 07:44:52;;;;;;;8.80;8.10;;;;;;;33.61;36.92;94106.84;5095950;28;20957;-78
2023/08/05 07:47:19;;;;;;;9.00;8.20;;;;;;;32.73;37.93;94111.59;5095268;28;20925;-77
2023/08/05 07:49:46;;;;;;;9.37;8.57;;;;;;;32.79;38.73;94101.53;5075927;28;20428;-77
2023/08/05 07:52:13;;;;;;;10.43;8.80;;;;;;;33.19;38.90;94092.91;5095389;28;20930;-77
2023/08/05 07:54:40;;;;;;;10.20;9.30;;;;;;;33.36;36.88;94095.19;5095505;28;20439;-77
2023/08/05 07:57:08;;;;;;;8.83;8.13;;;;;;;33.26;38.31;94090.66;5095320;28;20472;-77
2023/08/05 07:59:35;;;;;;;8.70;7.80;;;;;;;33.40;39.00;94090.78;5095023;28;20443;-77
2023/08/05 08:02:05;;;;;;;8.67;7.90;;;;;;;33.65;37.99;94095.06;5095119;28;20447;-77
2023/08/05 08:04:34;;;;;;;9.23;8.33;;;;;;;34.03;36.77;94095.09;5095111;28;20534;-77
2023/08/05 08:07:01;;;;;;;8.70;8.00;;;;;;;34.04;36.25;94093.97;5095254;28;20483;-77
2023/08/05 08:09:28;;;;;;;9.47;8.63;;;;;;;34.41;36.25;94098.63;5095164;28;20930;-77
2023/08/05 08:11:54;;;;;;;10.23;9.30;;;;;;;34.31;35.90;94099.53;5095138;28;20462;-78
2023/08/05 08:14:21;;;;;;;8.93;8.23;;;;;;;34.07;36.05;94094.19;5094829;28;20447;-77
2023/08/05 08:16:48;;;;;;;8.60;7.90;;;;;;;34.21;36.50;94088.81;5094646;28;20482;-77
2023/08/05 08:19:18;;;;;;;8.43;7.73;;;;;;;34.52;35.77;94080.16;5094768;28;21120;-77
2023/08/05 08:21:45;;;;;;;9.20;8.50;;;;;;;34.66;35.34;94081.78;5094837;28;20444;-77
2023/08/05 08:24:12;;;;;;;10.30;9.40;;;;;;;34.60;35.90;94080.28;5094834;28;20436;-77
2023/08/05 08:26:39;;;;;;;9.60;8.80;;;;;;;34.42;36.07;94073.78;5094429;28;20479;-77
2023/08/05 08:29:08;;;;;;;11.90;9.93;;;;;;;34.54;36.47;94073.31;5094509;28;20440;-77
2023/08/05 08:31:34;;;;;;;10.10;9.10;;;;;;;34.63;36.72;94070.69;5094956;28;20449;-78
2023/08/05 08:34:01;;;;;;;10.57;9.73;;;;;;;34.53;36.43;94068.16;5094670;28;20440;-78
2023/08/05 08:36:32;;;;;;;10.93;8.83;;;;;;;34.46;36.73;94074.81;5094856;28;20444;-77
2023/08/05 08:38:59;;;;;;;10.50;9.57;;;;;;;34.57;36.53;94074.63;5094643;28;20907;-77
2023/08/05 08:41:26;;;;;;;9.43;8.53;;;;;;;34.77;37.21;94085.97;5094330;28;20523;-77
2023/08/05 08:43:54;;;;;;;12.90;9.10;;;;;;;35.01;37.08;94079.56;5075307;28;20428;-77
2023/08/05 08:46:22;;;;;;;10.50;9.50;;;;;;;34.87;35.88;94079.53;5094116;28;20551;-77
2023/08/05 08:48:50;;;;;;;10.63;8.40;;;;;;;34.61;36.01;94081.09;5094324;28;20440;-77
2023/08/05 08:51:20;;;;;;;10.27;9.30;;;;;;;34.09;36.95;94074.84;5094188;28;20447;-77
2023/08/05 08:53:49;;;;;;;9.80;9.00;;;;;;;34.21;36.58;94077.94;5093818;28;20467;-77
2023/08/05 08:56:16;;;;;;;9.27;8.57;;;;;;;34.33;37.65;94069.28;5093954;28;20495;-76
2023/08/05 08:58:43;;;;;;;11.57;9.20;;;;;;;34.56;37.32;94062.91;5094059;28;20566;-77
2023/08/05 09:01:12;;;;;;;10.07;9.17;;;;;;;34.67;36.94;94058.88;5058215;28;20471;-77
2023/08/05 09:03:42;;;;;;;10.23;9.27;;;;;;;34.80;37.78;94062.75;5074801;28;20443;-78
2023/08/05 09:06:09;;;;;;;11.80;9.97;;;;;;;34.72;37.56;94056.09;5093830;28;20528;-77
2023/08/05 09:08:36;;;;;;;11.43;10.43;;;;;;;34.71;38.70;94051.75;5058156;28;20444;-77
2023/08/05 09:11:05;;;;;;;10.87;9.97;;;;;;;34.14;37.69;94056.53;5093903;28;20989;-77
2023/08/05 09:13:31;;;;;;;11.70;10.50;;;;;;;33.83;38.81;94049.94;5093739;28;20440;-77
2023/08/05 09:15:58;;;;;;;11.10;9.63;;;;;;;33.87;39.01;94050.97;5093625;28;20817;-77
2023/08/05 09:18:25;;;;;;;11.57;10.57;;;;;;;33.82;39.21;94051.78;5057698;28;20440;-77
2023/08/05 09:20:52;;;;;;;11.03;9.83;;;;;;;34.06;38.47;94048.19;5093330;28;20440;-77
2023/08/05 09:23:19;;;;;;;10.60;9.63;;;;;;;34.26;38.35;94047.06;5093562;28;20447;-77
2023/08/05 09:25:48;;;;;;;11.10;10.20;;;;;;;34.56;39.03;94052.00;5093749;28;20488;-78
2023/08/05 09:28:30;;;;;;;10.17;9.37;;;;;;;34.77;38.31;94036.09;5093855;28;20464;-77
2023/08/05 09:31:12;;;;;;;11.07;10.27;;;;;;;34.51;39.44;94045.84;5093598;28;20525;-78
2023/08/05 09:33:40;;;;;;;11.00;10.00;;;;;;;34.46;38.51;94044.84;5093568;28;20522;-78
2023/08/05 09:36:11;;;;;;;17.70;11.07;;;;;;;34.26;38.85;94052.50;5093335;28;20448;-77
2023/08/05 09:38:39;;;;;;;14.50;10.53;;;;;;;34.26;38.70;94047.06;5057942;28;20443;-78
2023/08/05 09:41:07;;;;;;;11.17;10.17;;;;;;;34.39;38.84;94041.66;5093478;28;20526;-77
2023/08/05 09:43:40;;;;;;;10.80;9.93;;;;;;;34.12;38.87;94033.41;5092911;28;20526;-77
2023/08/05 09:46:11;;;;;;;12.10;11.00;;;;;;;34.43;38.87;94037.25;5092897;28;20960;-77
2023/08/05 09:48:42;;;;;;;12.43;10.70;;;;;;;34.61;38.74;94027.38;5073742;28;20450;-77
2023/08/05 09:51:11;;;;;;;11.10;10.17;;;;;;;34.09;39.62;94026.63;5092933;28;20443;-76
2023/08/05 09:53:40;;;;;;;11.73;10.73;;;;;;;33.95;40.51;94031.22;5092820;28;20424;-77
2023/08/05 09:56:09;;;;;;;10.70;9.80;;;;;;;33.73;40.16;94023.63;5092757;28;20447;-77
2023/08/05 09:58:38;;;;;;;11.57;10.57;;;;;;;33.69;41.44;94022.63;5092617;28;20463;-77
2023/08/05 10:01:07;;;;;;;11.70;10.80;;;;;;;33.31;42.76;94023.69;5092418;28;20553;-78
2023/08/05 10:03:38;;;;;;;11.70;10.47;;;;;;;33.13;42.28;94020.66;5092523;28;20984;-76
2023/08/05 10:06:07;;;;;;;11.90;10.90;;;;;;;33.31;43.46;94016.38;5072775;28;20575;-77
2023/08/05 10:08:35;;;;;;;12.23;10.50;;;;;;;33.58;41.66;94015.72;5092362;28;20440;-76
2023/08/05 10:11:03;;;;;;;11.40;10.50;;;;;;;33.59;42.21;94022.78;5073159;28;20809;-77
2023/08/05 10:13:33;;;;;;;11.10;10.13;;;;;;;33.42;43.01;94022.47;5092473;28;20852;-77
2023/08/05 10:16:01;;;;;;;11.33;10.20;;;;;;;33.25;42.13;94018.31;5092534;28;20805;-77
2023/08/05 10:18:29;;;;;;;13.00;11.90;;;;;;;33.54;43.07;94011.94;5092616;28;20440;-77
2023/08/05 10:20:56;;;;;;;12.30;11.30;;;;;;;33.79;42.51;94005.31;5092323;28;20440;-77
2023/08/05 10:23:25;;;;;;;11.60;10.70;;;;;;;34.02;41.80;94009.06;5092143;28;20447;-77
2023/08/05 10:25:59;;;;;;;11.77;10.77;;;;;;;34.15;41.32;94000.13;5092653;28;20850;-78
2023/08/05 10:28:44;;;;;;;11.67;10.57;;;;;;;33.93;42.54;94005.41;5092183;28;20440;-77
2023/08/05 10:31:27;;;;;;;12.80;10.67;;;;;;;33.59;41.86;94009.16;5092202;28;20448;-78
2023/08/05 10:34:11;;;;;;;12.23;11.20;;;;;;;33.92;41.74;94015.50;5092077;28;20533;-77
2023/08/05 10:36:45;;;;;;;11.30;10.40;;;;;;;34.10;43.57;94005.66;5092182;28;20826;-77
2023/08/05 10:39:44;;;;;;;11.27;10.17;;;;;;;33.94;41.64;94016.00;5092220;28;20447;-77
2023/08/05 10:42:18;;;;;;;10.70;9.80;;;;;;;33.81;42.67;94003.91;5029373;28;20438;-77
2023/08/05 10:44:45;;;;;;;11.90;10.90;;;;;;;33.91;42.14;93992.09;5029424;28;20453;-77
2023/08/05 10:47:14;;;;;;;11.77;10.73;;;;;;;34.15;42.72;93994.69;5029327;28;20486;-78
2023/08/05 10:49:42;;;;;;;10.90;10.00;;;;;;;34.30;42.36;93988.16;5029622;28;20948;-77
2023/08/05 10:52:16;;;;;;;11.73;10.50;;;;;;;34.37;41.54;93992.13;5029323;28;20446;-77
2023/08/05 10:54:43;;;;;;;10.40;9.17;;;;;;;34.47;41.64;93981.06;4996452;28;20521;-77
2023/08/05 10:57:29;;;;;;;10.87;10.03;;;;;;;34.58;40.91;93978.94;5029311;28;20818;-77
2023/08/05 10:59:59;;;;;;;12.27;11.07;;;;;;;34.66;40.68;93974.69;5029190;28;20590;-77
2023/08/05 11:02:28;;;;;;;10.07;9.17;;;;;;;34.69;40.40;93980.34;5029359;28;20474;-77
2023/08/05 11:05:06;;;;;;;10.50;9.60;;;;;;;34.78;40.68;93972.28;5029408;28;20454;-77
2023/08/05 11:07:37;;;;;;;10.47;9.47;;;;;;;34.72;40.38;93970.78;5029290;28;20489;-78
2023/08/05 11:10:05;;;;;;;10.57;9.77;;;;;;;34.82;40.35;93965.09;5029612;28;20585;-81
2023/08/05 11:12:32;;;;;;;9.90;8.90;;;;;;;34.77;40.15;93963.28;5029437;28;20442;-78
2023/08/05 11:15:00;;;;;;;10.23;9.33;;;;;;;34.74;40.62;93968.53;5029401;28;20992;-77
2023/08/05 11:17:28;;;;;;;10.80;9.87;;;;;;;34.72;40.18;93963.41;5031091;28;20446;-78
2023/08/05 11:19:57;;;;;;;10.70;9.70;;;;;;;34.74;40.18;93971.28;5084260;28;20436;-78
2023/08/05 11:22:26;;;;;;;12.57;10.70;;;;;;;34.00;40.31;93954.09;5095806;28;20480;-77
2023/08/05 11:24:58;;;;;;;11.57;10.47;;;;;;;33.93;40.67;93950.97;5093791;28;20470;-78
2023/08/05 11:27:33;;;;;;;10.80;9.97;;;;;;;33.98;40.69;93940.78;5075931;28;20488;-76
2023/08/05 11:30:10;;;;;;;10.07;9.27;;;;;;;34.09;40.49;93933.22;5023769;28;20436;-79